METAR Data
IDs: Format: Raw Decoded Include TAF

Data at: 1232 UTC 23 Sep 2018

KRIL 231153Z AUTO 13003KT 10SM CLR 08/M05 A3015 RMK AO2 SLP155 T00831050 10133 20078 55001
KRIL 231053Z AUTO 00000KT 10SM CLR 09/M04 A3015 RMK AO2 SLP150 T00891044
KRIL 230953Z AUTO 00000KT 10SM CLR 08/M02 A3015 RMK AO2 SLP150 T00831017
KRIL 230853Z AUTO 13003KT 10SM CLR 10/M04 A3016 RMK AO2 SLP150 T01001044 50001
KRIL 230753Z AUTO 00000KT 10SM CLR 12/M04 A3016 RMK AO2 SLP149 T01171039
KRIL 230653Z AUTO 20003KT 10SM CLR 12/M04 A3016 RMK AO2 SLP152 T01221044 402890039
KRIL 230553Z AUTO 00000KT 10SM CLR 13/M03 A3015 RMK AO2 SLP156 T01331033 10272 20122 51005
KRIL 230453Z AUTO 23004KT 10SM CLR 14/M04 A3015 RMK AO2 SLP159 T01391039
KRIL 230353Z AUTO 07006KT 10SM CLR 16/M04 A3015 RMK AO2 SLP160 T01611039
KRIL 230253Z AUTO 12007KT 10SM CLR 18/M04 A3014 RMK AO2 SLP157 T01831044 53005
KRIL 230153Z AUTO 27008KT 10SM CLR 22/M04 A3012 RMK AO2 SLP153 T02171044
KRIL 230053Z AUTO 26009KT 10SM CLR 24/M04 A3012 RMK AO2 SLP151 T02441044
KRIL 222353Z AUTO 26016KT 10SM CLR 27/M05 A3012 RMK AO2 PK WND 27026/2309 SLP145 T02721050 10289 20211 55010
KRIL 222253Z AUTO 27017G25KT 10SM CLR 28/M04 A3011 RMK AO2 PK WND 26029/2203 SLP142 T02831044
KRIL 222153Z AUTO 27021G30KT 10SM CLR 29/M06 A3013 RMK AO2 PK WND 26032/2141 SLP143 T02891056
KRIL 222053Z AUTO 27021G30KT 10SM CLR 28/M07 A3015 RMK AO2 PK WND 28030/2020 SLP152 T02831072 57034
KRIL 221953Z AUTO 28020G27KT 10SM CLR 28/M05 A3019 RMK AO2 PK WND 28027/1951 SLP165 T02781050
KRIL 221853Z AUTO 27010KT 10SM CLR 25/M06 A3023 RMK AO2 SLP181 T02501056
KRIL 221753Z AUTO 00000KT 10SM CLR 21/M04 A3027 RMK AO2 SLP196 T02111039 10211 20039 58016
KRIL 221653Z AUTO 32003KT 10SM CLR 18/M03 A3030 RMK AO2 SLP213 T01781033
KRIL 221553Z AUTO 00000KT 10SM CLR 14/M06 A3032 RMK AO2 SLP221 T01441056
KRIL 221453Z AUTO 00000KT 10SM CLR 11/M06 A3032 RMK AO2 SLP223 T01111061 50005
KRIL 221353Z AUTO 00000KT 10SM CLR 07/M08 A3033 RMK AO2 SLP227 T00671078
KRIL 221253Z AUTO 00000KT 10SM CLR 05/M08 A3031 RMK AO2 SLP219 T00501083
KRIL 221153Z AUTO 00000KT 10SM CLR 06/M09 A3031 RMK AO2 SLP209 T00611089 10133 20044 53007
KRIL 221053Z AUTO 00000KT 10SM CLR 06/M09 A3029 RMK AO2 SLP203 T00611089
KRIL 220953Z AUTO 00000KT 10SM CLR 08/M08 A3028 RMK AO2 SLP197 T00781083
KRIL 220853Z AUTO 21005KT 10SM CLR 08/M09 A3028 RMK AO2 SLP197 T00831089 51005
KRIL 220753Z AUTO 00000KT 10SM CLR 09/M09 A3028 RMK AO2 SLP197 T00891089
KRIL 220653Z AUTO 00000KT 10SM CLR 10/M08 A3027 RMK AO2 SLP197 T01001083 402890039
KRIL 220553Z AUTO 00000KT 10SM CLR 13/M08 A3026 RMK AO2 SLP195 T01331078 10278 20122 51013
KRIL 220453Z AUTO 00000KT 10SM CLR 13/M07 A3026 RMK AO2 SLP198 T01331067
KRIL 220353Z AUTO 10007KT 10SM CLR 16/M09 A3024 RMK AO2 SLP193 T01561089
KRIL 220253Z AUTO 13006KT 10SM CLR 19/M09 A3022 RMK AO2 SLP189 T01891094 53021
KRIL 220153Z AUTO 26011KT 10SM CLR 22/M09 A3018 RMK AO2 SLP176 T02221094
KRIL 220053Z AUTO 27011KT 10SM CLR 25/M08 A3016 RMK AO2 SLP165 T02501078